Time;durP1;ratioP1;P1;durP2;ratioP2;P2;SDS_P1;SDS_P2;PMS_P1;PMS_P2;Temp;Humidity;BMP_temperature;BMP_pressure;BME280_temperature;BME280_humidity;BME280_pressure;Samples;Min_cycle;Max_cycle;Signal;HPM_P1;HPM_P2
2024/03/25 00:02:23;;;;;;;6.80;5.40;;;;;;;5.86;100.00;98694.89;177928;1255;46024;-79
2024/03/25 00:06:26;;;;;;;6.00;4.20;;;;;;;5.73;100.00;98695.08;178384;1254;45968;-80
2024/03/25 00:10:29;;;;;;;4.70;3.60;;;;;;;5.63;100.00;98694.25;177896;1257;46115;-79
2024/03/25 00:14:32;;;;;;;6.20;4.60;;;;;;;5.58;100.00;98689.17;178657;1254;46088;-80
2024/03/25 00:18:34;;;;;;;4.00;3.70;;;;;;;5.53;100.00;98679.73;177778;1256;58417;-80
2024/03/25 00:22:37;;;;;;;5.20;4.20;;;;;;;5.53;100.00;98671.17;178335;1254;46021;-80
2024/03/25 00:26:40;;;;;;;4.00;3.50;;;;;;;5.55;100.00;98664.67;177102;1257;45998;-80
2024/03/25 00:30:43;;;;;;;6.50;5.50;;;;;;;5.60;100.00;98662.14;177852;1256;46172;-79
2024/03/25 00:34:46;;;;;;;7.00;3.70;;;;;;;5.62;100.00;98655.82;177779;1255;46041;-80
2024/03/25 00:38:49;;;;;;;3.90;3.50;;;;;;;5.65;100.00;98653.24;178179;1254;58298;-80
2024/03/25 00:42:52;;;;;;;5.90;3.40;;;;;;;5.69;100.00;98650.11;178670;1254;46253;-80
2024/03/25 00:46:55;;;;;;;6.30;4.50;;;;;;;5.72;100.00;98646.08;177567;1254;46035;-80
2024/03/25 00:50:58;;;;;;;3.40;3.10;;;;;;;5.74;100.00;98646.46;178290;1254;46040;-80
2024/03/25 00:55:01;;;;;;;3.00;2.80;;;;;;;5.75;100.00;98647.64;177787;1255;46287;-80
2024/03/25 00:59:05;;;;;;;2.80;2.60;;;;;;;5.75;100.00;98643.77;178079;1258;58341;-79
2024/03/25 01:03:08;;;;;;;3.40;2.60;;;;;;;5.70;100.00;98641.38;176939;1254;46146;-79
2024/03/25 01:07:11;;;;;;;3.40;2.70;;;;;;;5.70;100.00;98637.65;179095;1254;46081;-79
2024/03/25 01:11:14;;;;;;;3.50;2.90;;;;;;;5.69;100.00;98637.42;177466;1255;46105;-80
2024/03/25 01:15:16;;;;;;;4.00;2.70;;;;;;;5.70;100.00;98632.80;178824;1256;46139;-80
2024/03/25 01:19:21;;;;;;;6.40;4.90;;;;;;;5.67;100.00;98627.89;177615;1257;57985;-79
2024/03/25 01:23:23;;;;;;;4.50;4.10;;;;;;;5.68;100.00;98630.44;178308;1255;46030;-79
2024/03/25 01:27:26;;;;;;;4.30;3.70;;;;;;;5.65;100.00;98624.40;179561;1255;45924;-80
2024/03/25 01:31:29;;;;;;;6.00;4.00;;;;;;;5.68;100.00;98625.19;177862;1257;45995;-80
2024/03/25 01:35:32;;;;;;;4.60;3.50;;;;;;;5.68;100.00;98622.39;178737;1254;46109;-79
2024/03/25 01:39:34;;;;;;;4.70;4.10;;;;;;;5.69;100.00;98622.60;177459;1255;57757;-80
2024/03/25 01:43:38;;;;;;;3.50;3.20;;;;;;;5.71;100.00;98618.07;178471;1255;46025;-80
2024/03/25 01:47:40;;;;;;;3.20;2.30;;;;;;;5.70;100.00;98622.86;178662;1254;46077;-80
2024/03/25 01:51:44;;;;;;;5.20;2.20;;;;;;;5.72;100.00;98622.39;177983;1255;46121;-79
2024/03/25 01:55:48;;;;;;;2.00;1.50;;;;;;;5.74;100.00;98624.35;178773;1254;45998;-79
2024/03/25 01:59:51;;;;;;;4.50;3.30;;;;;;;5.74;100.00;98621.13;179123;1254;59506;-79
2024/03/25 02:03:55;;;;;;;4.60;3.00;;;;;;;5.75;100.00;98617.89;178587;1254;46021;-79
2024/03/25 02:07:58;;;;;;;5.80;3.70;;;;;;;5.78;100.00;98615.72;178896;1254;46161;-79
2024/03/25 02:12:02;;;;;;;6.40;3.80;;;;;;;5.79;100.00;98612.45;180186;1254;45999;-79
2024/03/25 02:16:05;;;;;;;3.20;2.00;;;;;;;5.80;100.00;98613.79;179601;1254;45997;-80
2024/03/25 02:20:09;;;;;;;2.20;2.00;;;;;;;5.79;100.00;98617.50;179078;1254;59323;-79
2024/03/25 02:24:13;;;;;;;2.00;1.30;;;;;;;5.77;100.00;98617.89;178070;1255;46037;-80
2024/03/25 02:28:17;;;;;;;2.20;1.80;;;;;;;5.76;100.00;98615.91;177215;1254;46129;-79
2024/03/25 02:32:20;;;;;;;4.00;1.70;;;;;;;5.72;100.00;98618.17;178134;1254;44724;-79
2024/03/25 02:36:23;;;;;;;2.30;1.90;;;;;;;5.72;100.00;98622.20;178537;1254;46055;-79
2024/03/25 02:40:26;;;;;;;2.40;2.20;;;;;;;5.75;100.00;98623.36;178831;1254;59606;-79
2024/03/25 02:44:30;;;;;;;1.90;1.70;;;;;;;5.76;100.00;98629.44;176928;1257;46203;-79
2024/03/25 02:48:33;;;;;;;4.50;2.80;;;;;;;5.72;100.00;98629.39;179893;1254;46112;-80
2024/03/25 02:52:36;;;;;;;3.40;3.10;;;;;;;5.70;100.00;98629.23;178535;1255;46115;-80
2024/03/25 02:56:40;;;;;;;3.00;2.70;;;;;;;5.71;100.00;98633.32;177544;1254;46218;-79
2024/03/25 03:00:43;;;;;;;4.60;3.20;;;;;;;5.72;100.00;98633.63;178537;1255;58025;-79
2024/03/25 03:04:45;;;;;;;4.80;4.10;;;;;;;5.70;100.00;98635.02;179126;1256;46161;-79
2024/03/25 03:08:48;;;;;;;3.70;2.60;;;;;;;5.71;100.00;98639.84;179946;1254;45929;-79
2024/03/25 03:12:51;;;;;;;3.70;3.20;;;;;;;5.71;100.00;98642.32;177797;1255;46241;-79
2024/03/25 03:16:57;;;;;;;5.30;3.80;;;;;;;5.70;100.00;98645.56;178001;1255;46037;-80
2024/03/25 03:21:00;;;;;;;5.10;4.60;;;;;;;5.71;100.00;98641.43;178450;1254;57884;-79
2024/03/25 03:25:03;;;;;;;4.30;3.80;;;;;;;5.70;100.00;98645.92;177935;1254;46582;-79
2024/03/25 03:29:06;;;;;;;4.70;3.90;;;;;;;5.75;100.00;98646.96;176527;1255;44430;-79
2024/03/25 03:33:09;;;;;;;3.90;3.60;;;;;;;5.71;100.00;98644.27;178083;1255;46913;-79
2024/03/25 03:37:12;;;;;;;5.50;4.90;;;;;;;5.67;100.00;98648.44;178912;1254;44469;-79
2024/03/25 03:41:14;;;;;;;4.10;3.80;;;;;;;5.66;100.00;98646.15;177749;1255;58656;-79
2024/03/25 03:45:17;;;;;;;5.20;4.00;;;;;;;5.65;100.00;98647.59;178332;1257;46096;-79
2024/03/25 03:49:20;;;;;;;5.00;4.30;;;;;;;5.63;100.00;98651.66;177974;1257;46589;-79
2024/03/25 03:53:23;;;;;;;3.70;3.40;;;;;;;5.53;100.00;98655.82;177914;1254;46156;-79
2024/03/25 03:57:26;;;;;;;4.30;3.30;;;;;;;5.48;100.00;98655.55;179145;1254;46042;-79
2024/03/25 04:01:28;;;;;;;4.70;3.60;;;;;;;5.47;100.00;98655.67;177464;1254;58027;-80
2024/03/25 04:05:31;;;;;;;7.40;3.70;;;;;;;5.50;100.00;98658.39;177146;1254;46059;-80
2024/03/25 04:09:34;;;;;;;4.30;3.50;;;;;;;5.52;100.00;98656.95;177843;1254;46075;-80
2024/03/25 04:13:37;;;;;;;3.20;2.40;;;;;;;5.54;100.00;98650.12;178099;1255;46147;-79
2024/03/25 04:17:40;;;;;;;3.70;3.30;;;;;;;5.53;100.00;98650.71;177983;1254;46080;-79
2024/03/25 04:21:42;;;;;;;3.40;3.10;;;;;;;5.52;100.00;98652.40;179280;1254;59912;-80
2024/03/25 04:25:45;;;;;;;3.00;2.60;;;;;;;5.50;100.00;98650.30;178051;1254;45988;-79
2024/03/25 04:29:48;;;;;;;3.00;2.70;;;;;;;5.45;100.00;98653.73;178677;1254;45973;-80
2024/03/25 04:33:51;;;;;;;3.60;2.80;;;;;;;5.41;100.00;98656.72;178320;1255;45961;-80
2024/03/25 04:37:56;;;;;;;2.80;2.00;;;;;;;5.40;100.00;98661.02;181501;1254;43821;-80
2024/03/25 04:41:59;;;;;;;3.10;2.60;;;;;;;5.44;100.00;98664.36;179439;1254;59451;-80
2024/03/25 04:46:03;;;;;;;2.90;1.80;;;;;;;5.49;100.00;98677.27;177649;1259;45996;-80
2024/03/25 04:50:07;;;;;;;6.20;3.10;;;;;;;5.49;100.00;98678.54;178349;1254;46260;-80
2024/03/25 04:54:09;;;;;;;2.50;2.10;;;;;;;5.50;100.00;98680.59;178874;1254;44868;-80
2024/03/25 04:58:12;;;;;;;2.40;1.90;;;;;;;5.47;100.00;98682.05;179381;1254;46033;-80
2024/03/25 05:02:15;;;;;;;2.70;1.60;;;;;;;5.40;100.00;98681.05;178739;1254;58294;-81
2024/03/25 05:06:18;;;;;;;1.60;1.20;;;;;;;5.40;100.00;98691.44;178388;1254;46015;-81
2024/03/25 05:10:21;;;;;;;1.60;1.30;;;;;;;5.38;100.00;98698.59;178244;1258;46358;-81
2024/03/25 05:14:23;;;;;;;1.50;1.20;;;;;;;5.37;100.00;98705.91;178677;1254;46063;-79
2024/03/25 05:18:26;;;;;;;1.70;1.10;;;;;;;5.34;100.00;98707.39;180535;1254;44190;-81
2024/03/25 05:22:29;;;;;;;2.50;1.60;;;;;;;5.22;100.00;98719.11;179853;1254;57876;-80
2024/03/25 05:26:32;;;;;;;4.70;1.80;;;;;;;5.17;100.00;98731.50;178412;1254;46719;-81
2024/03/25 05:30:35;;;;;;;0.80;0.80;;;;;;;5.01;100.00;98742.48;177177;1258;46577;-81
2024/03/25 05:34:37;;;;;;;0.70;0.50;;;;;;;4.86;100.00;98749.34;177474;1255;46198;-79
2024/03/25 05:38:42;;;;;;;1.60;1.20;;;;;;;4.71;100.00;98763.53;178670;1256;44102;-79
2024/03/25 05:42:45;;;;;;;1.80;1.40;;;;;;;4.59;100.00;98770.13;179928;1256;57904;-82
2024/03/25 05:46:48;;;;;;;1.60;0.80;;;;;;;4.59;100.00;98776.66;177310;1256;46232;-80
2024/03/25 05:51:02;;;;;;;3.20;1.10;;;;;;;4.60;100.00;98782.55;178818;1254;44676;-81
2024/03/25 05:55:05;;;;;;;2.50;1.90;;;;;;;4.66;100.00;98785.54;177279;1256;273223;-80
2024/03/25 05:59:08;;;;;;;2.60;1.80;;;;;;;4.73;100.00;98789.92;179167;1255;45957;-81
2024/03/25 06:03:11;;;;;;;3.10;2.40;;;;;;;4.82;100.00;98794.63;179124;1258;58367;-81
2024/03/25 06:07:14;;;;;;;2.60;2.20;;;;;;;4.86;100.00;98801.88;178691;1255;46571;-80
2024/03/25 06:11:17;;;;;;;3.40;2.30;;;;;;;4.91;100.00;98805.50;177925;1256;46181;-81
2024/03/25 06:15:20;;;;;;;2.60;2.10;;;;;;;4.99;100.00;98816.08;178452;1254;44061;-79
2024/03/25 06:19:24;;;;;;;5.70;3.90;;;;;;;5.04;100.00;98821.84;179135;1255;45991;-81
2024/03/25 06:23:28;;;;;;;3.20;2.20;;;;;;;5.12;100.00;98825.97;178421;1255;58839;-81
2024/03/25 06:27:33;;;;;;;3.70;1.90;;;;;;;5.18;100.00;98831.23;180104;1254;43966;-81
2024/03/25 06:35:58;;;;;;;3.00;2.20;;;;;;;5.17;100.00;98844.13;177416;1256;46159;-80
2024/03/25 06:40:01;;;;;;;3.10;2.30;;;;;;;5.26;100.00;98847.64;177477;1256;46035;-80
2024/03/25 06:44:04;;;;;;;6.40;4.10;;;;;;;5.33;100.00;98855.13;178458;1256;59119;-81
2024/03/25 06:48:07;;;;;;;2.60;2.30;;;;;;;5.42;100.00;98861.99;177766;1254;46013;-80
2024/03/25 06:52:10;;;;;;;5.60;3.40;;;;;;;5.45;100.00;98867.73;178145;1254;46085;-80
2024/03/25 06:56:13;;;;;;;5.60;4.60;;;;;;;5.57;100.00;98862.85;177548;1255;46048;-79
2024/03/25 07:00:16;;;;;;;6.00;3.00;;;;;;;5.74;100.00;98870.77;177418;1254;46015;-80
2024/03/25 07:04:19;;;;;;;4.50;3.40;;;;;;;5.81;100.00;98877.74;177453;1254;59469;-80
2024/03/25 07:08:22;;;;;;;4.30;3.50;;;;;;;5.85;100.00;98882.27;179051;1258;44130;-81
2024/03/25 07:12:25;;;;;;;2.40;2.20;;;;;;;5.85;100.00;98887.74;177089;1254;46035;-80
2024/03/25 07:16:27;;;;;;;3.70;3.30;;;;;;;5.77;100.00;98892.14;177457;1254;46117;-81
2024/03/25 07:20:31;;;;;;;4.30;3.50;;;;;;;5.80;100.00;98892.55;177927;1258;46214;-81
2024/03/25 07:24:34;;;;;;;3.80;2.90;;;;;;;5.77;100.00;98899.31;180515;1254;58249;-81
2024/03/25 07:28:36;;;;;;;5.60;4.50;;;;;;;5.78;100.00;98900.45;179748;1255;45983;-80
2024/03/25 07:32:39;;;;;;;7.10;3.50;;;;;;;5.81;100.00;98909.23;179432;1254;44125;-81
2024/03/25 07:36:42;;;;;;;2.70;2.40;;;;;;;5.87;100.00;98910.84;178726;1254;46199;-81
2024/03/25 07:40:45;;;;;;;2.20;2.00;;;;;;;5.94;100.00;98905.63;178695;1256;45999;-81
2024/03/25 07:44:48;;;;;;;3.60;3.00;;;;;;;6.13;100.00;98914.54;179361;1255;59818;-82
2024/03/25 07:48:51;;;;;;;2.10;1.40;;;;;;;6.35;100.00;98913.84;178800;1255;46166;-81
2024/03/25 07:52:54;;;;;;;2.00;0.90;;;;;;;6.50;100.00;98916.83;179413;1254;45989;-82
2024/03/25 07:56:57;;;;;;;2.20;2.00;;;;;;;6.57;100.00;98923.41;180527;1255;46008;-81
2024/03/25 08:01:00;;;;;;;1.60;1.10;;;;;;;6.54;100.00;98930.20;178733;1254;46123;-82
2024/03/25 08:05:03;;;;;;;2.40;1.10;;;;;;;6.38;100.00;98943.02;178377;1254;60207;-82
2024/03/25 08:09:06;;;;;;;1.80;1.70;;;;;;;6.31;100.00;98941.32;178751;1255;45985;-81
2024/03/25 08:13:09;;;;;;;3.70;2.80;;;;;;;6.29;100.00;98951.35;177654;1256;46049;-80
2024/03/25 08:17:13;;;;;;;3.20;2.40;;;;;;;6.23;100.00;98951.17;177555;1255;46009;-81
2024/03/25 08:21:16;;;;;;;5.90;2.90;;;;;;;6.31;100.00;98949.07;177843;1254;46180;-81
2024/03/25 08:25:19;;;;;;;3.90;2.90;;;;;;;6.31;100.00;98969.30;178445;1254;59687;-81
2024/03/25 08:29:22;;;;;;;4.80;4.00;;;;;;;6.28;100.00;98966.45;177965;1254;45995;-81
2024/03/25 08:33:25;;;;;;;4.70;3.90;;;;;;;6.33;100.00;98967.96;178416;1254;45995;-81
2024/03/25 08:37:28;;;;;;;5.90;3.60;;;;;;;6.27;100.00;98971.55;179083;1256;46059;-81
2024/03/25 08:41:30;;;;;;;7.60;4.60;;;;;;;6.24;100.00;98973.29;178335;1255;46040;-79
2024/03/25 08:45:33;;;;;;;3.70;3.10;;;;;;;6.32;100.00;98978.05;179120;1255;58097;-81
2024/03/25 08:49:36;;;;;;;5.50;4.60;;;;;;;6.49;100.00;98988.18;177557;1256;46179;-81
2024/03/25 08:53:39;;;;;;;5.70;4.70;;;;;;;6.58;100.00;98995.56;178799;1255;46133;-81
2024/03/25 08:57:42;;;;;;;5.40;3.40;;;;;;;6.68;100.00;98999.83;179065;1256;46062;-81
2024/03/25 09:01:44;;;;;;;4.70;4.10;;;;;;;6.67;100.00;99003.41;179742;1255;44192;-81
2024/03/25 09:05:47;;;;;;;5.90;4.30;;;;;;;6.64;100.00;99010.02;178236;1254;59384;-81
2024/03/25 09:14:12;;;;;;;3.70;3.30;;;;;;;6.67;100.00;99023.73;179134;1255;44517;-81
2024/03/25 09:18:14;;;;;;;5.60;4.30;;;;;;;6.64;100.00;99024.85;177970;1255;46011;-81
2024/03/25 09:22:17;;;;;;;4.70;3.60;;;;;;;6.63;100.00;99038.66;178733;1254;46302;-81
2024/03/25 09:26:20;;;;;;;5.90;3.80;;;;;;;6.66;100.00;99041.22;178363;1254;58412;-80
2024/03/25 09:30:23;;;;;;;13.40;4.70;;;;;;;6.72;100.00;99043.66;178349;1255;46169;-81
2024/03/25 09:34:26;;;;;;;7.40;4.10;;;;;;;6.70;100.00;99049.83;178119;1255;46140;-82
2024/03/25 09:38:29;;;;;;;4.10;3.00;;;;;;;6.66;100.00;99049.14;178834;1256;45970;-82
2024/03/25 09:42:46;;;;;;;6.60;4.20;;;;;;;6.72;100.00;99057.30;178891;1258;46110;-82
2024/03/25 09:46:49;;;;;;;8.70;5.40;;;;;;;7.02;100.00;99059.46;177078;1255;58054;-81
2024/03/25 09:50:53;;;;;;;7.20;5.10;;;;;;;7.10;100.00;99064.64;178482;1258;46103;-81
2024/03/25 09:54:56;;;;;;;6.20;4.10;;;;;;;7.10;100.00;99066.92;177212;1256;46207;-82
2024/03/25 09:59:00;;;;;;;5.00;4.50;;;;;;;6.99;100.00;99069.80;180144;1254;46016;-82
2024/03/25 10:03:03;;;;;;;5.40;3.90;;;;;;;6.88;100.00;99075.08;178563;1255;46136;-82
2024/03/25 10:07:06;;;;;;;3.40;3.10;;;;;;;6.82;100.00;99086.75;179375;1256;59310;-82
2024/03/25 10:11:08;;;;;;;3.90;2.60;;;;;;;6.82;100.00;99094.52;179085;1255;46110;-79
2024/03/25 10:15:18;;;;;;;5.90;3.30;;;;;;;6.75;100.00;99098.56;178022;1255;46102;-81
2024/03/25 10:19:21;;;;;;;6.10;3.80;;;;;;;6.69;100.00;99107.00;178051;1254;46093;-81
2024/03/25 10:23:27;;;;;;;4.20;3.80;;;;;;;6.67;100.00;99109.98;178846;1255;46119;-81
2024/03/25 10:27:29;;;;;;;7.80;5.10;;;;;;;6.64;100.00;99111.36;178629;1255;59632;-81
2024/03/25 10:31:33;;;;;;;6.10;4.30;;;;;;;6.53;100.00;99118.77;178834;1256;46160;-80
2024/03/25 10:35:37;;;;;;;7.00;3.90;;;;;;;6.60;100.00;99127.85;179537;1255;45990;-81
2024/03/25 10:39:48;;;;;;;7.80;5.40;;;;;;;6.81;100.00;99131.08;178671;1257;46214;-80
2024/03/25 10:43:53;;;;;;;5.10;4.40;;;;;;;6.81;100.00;99130.86;179073;1256;44118;-80
2024/03/25 10:48:08;;;;;;;5.20;4.10;;;;;;;6.79;100.00;99125.61;178085;1256;58893;-81
2024/03/25 10:52:12;;;;;;;7.80;6.90;;;;;;;6.78;100.00;99127.64;179647;1254;46118;-81
2024/03/25 10:56:16;;;;;;;6.30;4.30;;;;;;;6.85;100.00;99134.41;179022;1254;46038;-80
2024/03/25 11:00:19;;;;;;;6.20;4.10;;;;;;;6.77;100.00;99138.11;176936;1255;46002;-81
2024/03/25 11:04:24;;;;;;;7.50;5.20;;;;;;;6.79;100.00;99135.98;178269;1258;44419;-80
2024/03/25 11:08:32;;;;;;;6.60;5.10;;;;;;;6.84;100.00;99139.73;178251;1254;58199;-82
2024/03/25 11:12:41;;;;;;;9.00;5.60;;;;;;;6.92;100.00;99144.44;178642;1256;46112;-81
2024/03/25 11:16:51;;;;;;;9.80;7.00;;;;;;;6.96;100.00;99144.71;178506;1255;46000;-80
2024/03/25 11:21:05;;;;;;;11.00;5.90;;;;;;;7.14;100.00;99153.99;178572;1254;46104;-82
2024/03/25 11:25:13;;;;;;;8.50;6.70;;;;;;;7.23;100.00;99151.10;178285;1256;46008;-81
2024/03/25 11:29:16;;;;;;;9.80;7.10;;;;;;;7.36;100.00;99147.73;179197;1254;58927;-81
2024/03/25 11:33:22;;;;;;;9.70;6.20;;;;;;;7.35;100.00;99140.95;179009;1256;44355;-82
2024/03/25 11:37:24;;;;;;;10.50;6.70;;;;;;;7.24;100.00;99145.06;178545;1255;46008;-81
2024/03/25 11:41:28;;;;;;;10.50;5.90;;;;;;;7.27;100.00;99140.21;178394;1255;45996;-81
2024/03/25 11:45:31;;;;;;;8.00;5.30;;;;;;;7.10;100.00;99153.78;178356;1254;46067;-82
2024/03/25 11:49:38;;;;;;;6.90;4.50;;;;;;;6.97;100.00;99157.71;177285;1255;58153;-81
2024/03/25 11:53:41;;;;;;;6.10;3.80;;;;;;;6.85;100.00;99156.66;178172;1255;46151;-81
2024/03/25 11:57:44;;;;;;;8.80;5.30;;;;;;;6.84;100.00;99164.61;177410;1255;46001;-81
2024/03/25 12:01:48;;;;;;;5.50;5.00;;;;;;;6.84;100.00;99158.49;178574;1256;45995;-81
2024/03/25 12:05:51;;;;;;;7.20;6.00;;;;;;;6.96;100.00;99158.89;178452;1255;45987;-81
2024/03/25 12:14:16;;;;;;;10.20;5.00;;;;;;;7.08;100.00;99151.92;178877;1254;46121;-81
2024/03/25 12:18:21;;;;;;;12.50;4.90;;;;;;;7.11;100.00;99143.68;177491;1258;46100;-81
2024/03/25 12:22:25;;;;;;;10.10;5.80;;;;;;;7.29;100.00;99147.30;178587;1254;46164;-81
2024/03/25 12:26:31;;;;;;;8.00;5.10;;;;;;;7.62;100.00;99138.98;178392;1257;45968;-79
2024/03/25 12:30:40;;;;;;;8.00;5.20;;;;;;;8.09;100.00;99139.05;177991;1255;58463;-81
2024/03/25 12:34:42;;;;;;;15.70;7.30;;;;;;;8.42;100.00;99131.38;178847;1256;46084;-82
2024/03/25 12:38:54;;;;;;;8.30;5.60;;;;;;;8.54;100.00;99131.14;177572;1255;46096;-82
2024/03/25 12:42:57;;;;;;;7.10;5.50;;;;;;;8.62;100.00;99125.52;177546;1254;46049;-80
2024/03/25 12:47:00;;;;;;;5.90;4.90;;;;;;;8.73;100.00;99127.48;179677;1254;45975;-80
2024/03/25 12:51:04;;;;;;;7.30;5.30;;;;;;;8.94;100.00;99128.39;177954;1256;58030;-81
2024/03/25 12:55:07;;;;;;;5.80;4.70;;;;;;;9.04;100.00;99123.21;177814;1256;46491;-81
2024/03/25 12:59:10;;;;;;;4.90;4.30;;;;;;;9.21;100.00;99115.45;177013;1256;46086;-81
2024/03/25 13:03:14;;;;;;;9.80;4.40;;;;;;;9.40;99.54;99106.80;177042;1256;46009;-81
2024/03/25 13:07:16;;;;;;;6.50;3.60;;;;;;;9.63;97.63;99116.39;177918;1254;46227;-81
2024/03/25 13:11:19;;;;;;;5.30;3.80;;;;;;;9.64;92.34;99113.91;177137;1255;59250;-82
2024/03/25 13:15:22;;;;;;;3.20;2.90;;;;;;;9.31;93.50;99133.57;178438;1256;46031;-81
2024/03/25 13:19:30;;;;;;;30.00;13.40;;;;;;;8.94;99.90;99145.55;177407;1256;46214;-80
2024/03/25 13:23:33;;;;;;;2.80;2.20;;;;;;;8.38;100.00;99164.76;178295;1257;45953;-81
2024/03/25 13:27:36;;;;;;;3.50;2.10;;;;;;;7.63;100.00;99166.39;177643;1256;46110;-81
2024/03/25 13:31:39;;;;;;;2.60;2.10;;;;;;;7.36;100.00;99166.45;177108;1257;57450;-79
2024/03/25 13:35:41;;;;;;;2.40;1.60;;;;;;;7.32;100.00;99166.91;177351;1258;46574;-81
2024/03/25 13:39:46;;;;;;;2.60;0.90;;;;;;;7.42;100.00;99162.52;177356;1256;46961;-81
2024/03/25 13:43:48;;;;;;;4.80;2.00;;;;;;;7.63;100.00;99159.65;177189;1258;46109;-80
2024/03/25 13:47:51;;;;;;;3.20;2.40;;;;;;;7.98;100.00;99164.91;177609;1258;45969;-81
2024/03/25 13:52:02;;;;;;;6.60;4.50;;;;;;;8.48;100.00;99160.17;179270;1256;57436;-80
2024/03/25 13:56:06;;;;;;;7.00;3.50;;;;;;;9.00;100.00;99156.72;179893;1258;46775;-80
2024/03/25 14:00:10;;;;;;;5.50;3.60;;;;;;;9.20;100.00;99154.81;177455;1256;46009;-80
2024/03/25 14:04:13;;;;;;;8.20;3.00;;;;;;;9.14;100.00;99156.41;178823;1256;46000;-79
2024/03/25 14:08:16;;;;;;;4.60;3.20;;;;;;;9.09;99.27;99155.30;178375;1256;46001;-80
2024/03/25 14:12:19;;;;;;;4.20;3.10;;;;;;;9.09;99.77;99158.84;178982;1258;59227;-79
2024/03/25 14:16:21;;;;;;;10.40;5.30;;;;;;;8.96;99.79;99160.04;179374;1256;44026;-80
2024/03/25 14:20:24;;;;;;;6.00;3.70;;;;;;;8.81;97.71;99168.64;179001;1256;46086;-79
2024/03/25 14:24:27;;;;;;;6.50;4.00;;;;;;;8.69;98.47;99184.03;178491;1256;46048;-80
2024/03/25 14:28:30;;;;;;;2.80;2.50;;;;;;;8.34;99.03;99185.96;178853;1258;45956;-80
2024/03/25 14:32:33;;;;;;;3.00;1.90;;;;;;;8.03;100.00;99188.12;179073;1258;59339;-79
2024/03/25 14:36:36;;;;;;;3.30;2.30;;;;;;;7.89;100.00;99195.41;179341;1258;44701;-80
2024/03/25 14:40:39;;;;;;;6.00;2.50;;;;;;;7.76;100.00;99199.14;178722;1258;46218;-80
2024/03/25 14:44:42;;;;;;;3.10;1.10;;;;;;;7.52;100.00;99201.17;180393;1255;46110;-80
2024/03/25 14:48:45;;;;;;;1.30;0.70;;;;;;;7.49;100.00;99205.53;179950;1257;46085;-80
2024/03/25 14:52:50;;;;;;;0.70;0.70;;;;;;;7.58;100.00;99202.61;179337;1256;58395;-79
2024/03/25 14:56:53;;;;;;;2.40;1.90;;;;;;;7.74;100.00;99205.48;179882;1254;45752;-80
2024/03/25 15:00:57;;;;;;;2.00;1.60;;;;;;;7.94;100.00;99204.31;181048;1254;44135;-81
2024/03/25 15:05:00;;;;;;;1.30;1.20;;;;;;;8.10;100.00;99201.87;179292;1254;46109;-80
2024/03/25 15:09:03;;;;;;;1.90;1.80;;;;;;;8.23;100.00;99197.90;180657;1256;43994;-80
2024/03/25 15:13:06;;;;;;;3.20;2.10;;;;;;;8.31;100.00;99204.56;179269;1257;59352;-80
2024/03/25 15:17:09;;;;;;;6.90;3.60;;;;;;;8.32;100.00;99205.92;179255;1258;44225;-80
2024/03/25 15:21:12;;;;;;;5.10;3.10;;;;;;;8.24;100.00;99207.48;179746;1255;44763;-80
2024/03/25 15:25:15;;;;;;;5.50;3.30;;;;;;;8.16;100.00;99214.69;180187;1255;45984;-80
2024/03/25 15:29:18;;;;;;;4.30;3.80;;;;;;;8.22;100.00;99215.28;180160;1254;45138;-80
2024/03/25 15:33:21;;;;;;;5.50;4.60;;;;;;;8.30;100.00;99213.21;179660;1255;58052;-80
2024/03/25 15:37:24;;;;;;;4.20;3.80;;;;;;;8.42;100.00;99216.84;178639;1255;47167;-81
2024/03/25 15:41:27;;;;;;;9.20;4.90;;;;;;;8.42;100.00;99223.17;178352;1258;46411;-81
2024/03/25 15:45:30;;;;;;;4.80;4.10;;;;;;;8.40;100.00;99223.39;177729;1258;46024;-80
2024/03/25 15:49:33;;;;;;;6.10;4.90;;;;;;;8.33;100.00;99219.56;178833;1258;45931;-80
2024/03/25 15:53:36;;;;;;;5.90;4.80;;;;;;;8.35;100.00;99219.42;179672;1258;59012;-80
2024/03/25 15:57:39;;;;;;;10.20;5.40;;;;;;;8.32;100.00;99223.05;178593;1254;46135;-80
2024/03/25 16:01:42;;;;;;;7.30;5.10;;;;;;;8.24;100.00;99232.02;178690;1256;45956;-80
2024/03/25 16:05:44;;;;;;;5.90;4.40;;;;;;;8.21;100.00;99233.40;179296;1254;46088;-80
2024/03/25 16:09:48;;;;;;;8.60;5.20;;;;;;;8.12;100.00;99233.31;178654;1256;46141;-80
2024/03/25 16:13:51;;;;;;;7.20;4.00;;;;;;;7.95;100.00;99234.39;178035;1257;59216;-79
2024/03/25 16:17:54;;;;;;;5.90;4.60;;;;;;;7.78;100.00;99235.65;178097;1254;46005;-79
2024/03/25 16:21:57;;;;;;;24.10;12.70;;;;;;;7.77;100.00;99237.05;177676;1257;46137;-81
2024/03/25 16:25:59;;;;;;;34.30;17.60;;;;;;;7.82;100.00;99235.52;178671;1255;45975;-81
2024/03/25 16:30:03;;;;;;;33.00;19.60;;;;;;;7.82;100.00;99237.95;177416;1256;46153;-81
2024/03/25 16:34:05;;;;;;;20.60;14.40;;;;;;;7.88;100.00;99238.69;178049;1257;60297;-81
2024/03/25 16:38:08;;;;;;;21.20;14.30;;;;;;;7.92;100.00;99235.34;177649;1257;46100;-80
2024/03/25 16:42:11;;;;;;;15.30;8.80;;;;;;;8.02;100.00;99236.78;179045;1254;44154;-79
2024/03/25 16:46:14;;;;;;;10.20;7.70;;;;;;;8.11;100.00;99232.48;178417;1255;46120;-80
2024/03/25 16:50:17;;;;;;;16.60;7.70;;;;;;;8.10;100.00;99238.57;178259;1254;46037;-79
2024/03/25 16:54:20;;;;;;;9.30;8.10;;;;;;;8.07;100.00;99243.05;178103;1257;59876;-77
2024/03/25 16:58:22;;;;;;;17.30;8.80;;;;;;;8.00;100.00;99243.87;178197;1258;45879;-79
2024/03/25 17:02:26;;;;;;;7.90;7.10;;;;;;;7.89;100.00;99253.08;178580;1260;45967;-79
2024/03/25 17:06:29;;;;;;;11.30;7.10;;;;;;;7.72;100.00;99257.05;178520;1254;46188;-79
2024/03/25 17:10:32;;;;;;;9.10;4.90;;;;;;;7.57;100.00;99259.39;177738;1254;46063;-79
2024/03/25 17:14:34;;;;;;;13.20;7.60;;;;;;;7.39;100.00;99261.63;178623;1257;58892;-80
2024/03/25 17:18:37;;;;;;;9.40;6.70;;;;;;;7.28;100.00;99266.69;178262;1255;46107;-79
2024/03/25 17:22:40;;;;;;;8.30;6.70;;;;;;;7.24;100.00;99271.48;177755;1257;46137;-80
2024/03/25 17:26:43;;;;;;;13.40;9.10;;;;;;;7.26;100.00;99274.61;177389;1256;46172;-79
2024/03/25 17:30:47;;;;;;;15.40;9.30;;;;;;;7.28;100.00;99285.80;177674;1258;45993;-79
2024/03/25 17:34:50;;;;;;;13.80;9.00;;;;;;;7.26;100.00;99287.00;177789;1255;57761;-79
2024/03/25 17:38:53;;;;;;;15.30;9.80;;;;;;;7.23;100.00;99289.20;177511;1254;46222;-75
2024/03/25 17:42:56;;;;;;;13.60;8.70;;;;;;;7.19;100.00;99288.29;177230;1254;46030;-76
2024/03/25 17:46:58;;;;;;;14.40;9.40;;;;;;;7.17;100.00;99291.30;177328;1257;46253;-77
2024/03/25 17:51:02;;;;;;;21.20;14.70;;;;;;;7.11;100.00;99293.89;177371;1257;46110;-76
2024/03/25 17:55:05;;;;;;;25.40;14.40;;;;;;;7.02;100.00;99295.68;177091;1258;199626;-76
2024/03/25 17:59:07;;;;;;;17.70;12.20;;;;;;;6.91;100.00;99300.62;178423;1256;46284;-76
2024/03/25 18:03:10;;;;;;;14.40;10.50;;;;;;;6.88;100.00;99299.99;177310;1257;46117;-76
2024/03/25 18:07:13;;;;;;;20.80;11.90;;;;;;;6.71;100.00;99299.10;178847;1254;45906;-77
2024/03/25 18:11:16;;;;;;;56.20;36.40;;;;;;;6.39;100.00;99304.83;178750;1257;46069;-78
2024/03/25 18:15:19;;;;;;;43.70;28.00;;;;;;;6.15;100.00;99305.96;177161;1256;58814;-78
2024/03/25 18:19:22;;;;;;;21.00;16.20;;;;;;;5.98;100.00;99310.80;177226;1258;46095;-78
2024/03/25 18:23:25;;;;;;;25.60;18.20;;;;;;;5.89;100.00;99313.30;177427;1254;46212;-78
2024/03/25 18:27:28;;;;;;;43.30;31.20;;;;;;;5.75;100.00;99314.66;177355;1257;46243;-78
2024/03/25 18:31:31;;;;;;;32.60;24.20;;;;;;;5.67;100.00;99312.79;177711;1257;46067;-79
2024/03/25 18:35:39;;;;;;;26.20;20.30;;;;;;;5.65;100.00;99313.16;177554;1257;58418;-78
2024/03/25 18:39:42;;;;;;;26.50;18.00;;;;;;;5.58;100.00;99321.39;178952;1254;45992;-79
2024/03/25 18:43:45;;;;;;;20.50;11.90;;;;;;;5.56;100.00;99318.55;179618;1258;44818;-79
2024/03/25 18:47:48;;;;;;;25.10;15.90;;;;;;;5.52;100.00;99321.66;178350;1254;46192;-78
2024/03/25 18:51:50;;;;;;;29.50;18.70;;;;;;;5.47;100.00;99319.58;179243;1254;45977;-78
2024/03/25 18:55:53;;;;;;;24.70;17.60;;;;;;;5.40;100.00;99322.04;178852;1254;59297;-78
2024/03/25 18:59:56;;;;;;;24.30;16.50;;;;;;;5.26;100.00;99326.30;178522;1254;46027;-78
2024/03/25 19:03:59;;;;;;;26.30;16.60;;;;;;;5.16;100.00;99327.73;178312;1254;46659;-78